Time;durP1;ratioP1;P1;durP2;ratioP2;P2;SDS_P1;SDS_P2;PMS_P1;PMS_P2;Temp;Humidity;BMP_temperature;BMP_pressure;BME280_temperature;BME280_humidity;BME280_pressure;Samples;Min_cycle;Max_cycle;Signal;HPM_P1;HPM_P2
2023/01/21 00:00:08;;;;;;;;;;;23.40;29.40;;;;;;463595;256;1712;-44
2023/01/21 00:02:09;;;;;;;;;;;23.40;29.40;;;;;;463511;256;2198;-44
2023/01/21 00:04:10;;;;;;;;;;;23.50;29.40;;;;;;463368;256;2402;-44
2023/01/21 00:06:13;;;;;;;;;;;23.40;29.30;;;;;;463589;256;1890;-43
2023/01/21 00:08:13;;;;;;;;;;;23.50;29.40;;;;;;463412;257;2152;-44
2023/01/21 00:10:14;;;;;;;;;;;23.40;29.30;;;;;;463522;256;1237;-44
2023/01/21 00:12:16;;;;;;;;;;;23.40;29.30;;;;;;463652;256;1467;-44
2023/01/21 00:14:17;;;;;;;;;;;23.50;29.40;;;;;;463339;256;1581;-44
2023/01/21 00:16:18;;;;;;;;;;;23.50;29.30;;;;;;463831;256;1577;-43
2023/01/21 00:18:20;;;;;;;;;;;23.50;29.30;;;;;;463653;256;1365;-44
2023/01/21 00:20:21;;;;;;;;;;;23.50;29.40;;;;;;463602;256;1978;-44
2023/01/21 00:22:22;;;;;;;;;;;23.50;29.40;;;;;;463523;256;2175;-44
2023/01/21 00:24:24;;;;;;;;;;;23.50;29.30;;;;;;463536;256;1254;-44
2023/01/21 00:26:25;;;;;;;;;;;23.50;29.30;;;;;;463428;256;1802;-44
2023/01/21 00:28:26;;;;;;;;;;;23.50;29.30;;;;;;463380;256;1854;-44
2023/01/21 00:30:29;;;;;;;;;;;23.50;29.30;;;;;;463155;256;1876;-44
2023/01/21 00:32:29;;;;;;;;;;;23.50;29.30;;;;;;463098;256;1710;-44
2023/01/21 00:34:30;;;;;;;;;;;23.50;29.30;;;;;;463129;256;1675;-44
2023/01/21 00:36:31;;;;;;;;;;;23.50;29.30;;;;;;463191;256;1894;-44
2023/01/21 00:38:33;;;;;;;;;;;23.50;29.30;;;;;;463181;256;1679;-44
2023/01/21 00:40:34;;;;;;;;;;;23.50;29.30;;;;;;463370;256;1894;-44
2023/01/21 00:42:35;;;;;;;;;;;23.50;29.30;;;;;;463186;256;2124;-44
2023/01/21 00:44:37;;;;;;;;;;;23.60;29.30;;;;;;463203;256;1839;-44
2023/01/21 00:46:38;;;;;;;;;;;23.60;29.30;;;;;;463273;256;2181;-43
2023/01/21 00:48:40;;;;;;;;;;;23.50;29.30;;;;;;463264;256;1753;-44
2023/01/21 00:50:41;;;;;;;;;;;23.60;29.40;;;;;;463478;256;1925;-44
2023/01/21 00:52:42;;;;;;;;;;;23.60;29.30;;;;;;463283;256;1993;-43
2023/01/21 00:54:44;;;;;;;;;;;23.60;29.30;;;;;;463251;256;2498;-44
2023/01/21 00:56:45;;;;;;;;;;;23.60;29.30;;;;;;463314;256;1927;-44
2023/01/21 00:58:46;;;;;;;;;;;23.60;29.30;;;;;;463347;256;1721;-44
2023/01/21 01:00:48;;;;;;;;;;;23.60;29.30;;;;;;463241;256;1743;-44
2023/01/21 01:02:49;;;;;;;;;;;23.60;29.30;;;;;;463371;256;2213;-44
2023/01/21 01:04:50;;;;;;;;;;;23.70;29.30;;;;;;463296;256;1660;-43
2023/01/21 01:06:51;;;;;;;;;;;23.60;29.30;;;;;;463269;256;2053;-44
2023/01/21 01:08:56;;;;;;;;;;;23.70;29.30;;;;;;463194;256;1698;-44
2023/01/21 01:10:55;;;;;;;;;;;23.60;29.30;;;;;;463376;256;2137;-44
2023/01/21 01:12:56;;;;;;;;;;;23.70;29.30;;;;;;463386;256;1811;-44
2023/01/21 01:14:57;;;;;;;;;;;23.70;29.30;;;;;;463293;256;1765;-44
2023/01/21 01:16:59;;;;;;;;;;;23.70;29.30;;;;;;463819;256;1625;-44
2023/01/21 01:19:00;;;;;;;;;;;23.70;29.30;;;;;;463403;256;1572;-44
2023/01/21 01:21:01;;;;;;;;;;;23.70;29.30;;;;;;463360;256;2199;-44
2023/01/21 01:23:03;;;;;;;;;;;23.60;29.40;;;;;;463305;256;1879;-44
2023/01/21 01:25:04;;;;;;;;;;;23.50;29.50;;;;;;463230;256;1701;-43
2023/01/21 01:27:05;;;;;;;;;;;23.30;29.70;;;;;;463354;256;1982;-43
2023/01/21 01:29:06;;;;;;;;;;;23.10;29.90;;;;;;463166;256;1981;-44
2023/01/21 01:31:08;;;;;;;;;;;22.90;30.00;;;;;;463181;256;1666;-43
2023/01/21 01:33:09;;;;;;;;;;;22.80;30.20;;;;;;463348;256;1854;-43
2023/01/21 01:35:11;;;;;;;;;;;22.60;30.40;;;;;;463234;256;1739;-43
2023/01/21 01:37:12;;;;;;;;;;;22.60;30.60;;;;;;463550;256;1813;-44
2023/01/21 01:39:13;;;;;;;;;;;22.50;30.70;;;;;;463204;256;1832;-43
2023/01/21 01:41:15;;;;;;;;;;;22.40;30.80;;;;;;463341;256;2191;-43
2023/01/21 01:43:17;;;;;;;;;;;22.30;30.80;;;;;;463433;256;1991;-44
2023/01/21 01:45:19;;;;;;;;;;;22.30;31.00;;;;;;463173;256;1752;-43
2023/01/21 01:47:19;;;;;;;;;;;22.20;31.10;;;;;;463248;256;2015;-43
2023/01/21 01:49:21;;;;;;;;;;;22.10;31.10;;;;;;463237;256;1771;-43
2023/01/21 01:51:22;;;;;;;;;;;22.10;31.20;;;;;;463372;256;1699;-44
2023/01/21 01:53:23;;;;;;;;;;;22.10;31.20;;;;;;463720;256;1755;-44
2023/01/21 01:55:25;;;;;;;;;;;22.00;31.30;;;;;;463577;256;1661;-43
2023/01/21 01:57:26;;;;;;;;;;;22.00;31.40;;;;;;463349;256;1747;-44
2023/01/21 01:59:27;;;;;;;;;;;22.00;31.40;;;;;;463469;256;1832;-43
2023/01/21 02:01:29;;;;;;;;;;;21.90;31.40;;;;;;463276;256;2180;-44
2023/01/21 02:06:00;;;;;;;;;;;21.90;31.50;;;;;;456868;257;1704;-43
2023/01/21 02:08:01;;;;;;;;;;;21.80;31.60;;;;;;463340;256;2174;-43
2023/01/21 02:10:02;;;;;;;;;;;21.80;31.60;;;;;;463363;256;1943;-44
2023/01/21 02:12:04;;;;;;;;;;;21.70;31.70;;;;;;463634;256;1922;-43
2023/01/21 02:14:05;;;;;;;;;;;21.70;31.80;;;;;;463309;256;1849;-44
2023/01/21 02:16:06;;;;;;;;;;;21.70;31.80;;;;;;463275;256;1726;-43
2023/01/21 02:18:08;;;;;;;;;;;21.70;31.80;;;;;;463450;256;1742;-43
2023/01/21 02:20:09;;;;;;;;;;;21.70;31.80;;;;;;463266;256;1826;-44
2023/01/21 02:22:10;;;;;;;;;;;21.70;31.80;;;;;;463229;256;2211;-43
2023/01/21 02:24:12;;;;;;;;;;;21.60;31.80;;;;;;463410;256;1611;-43
2023/01/21 02:26:13;;;;;;;;;;;21.60;31.90;;;;;;463212;256;1747;-43
2023/01/21 02:28:14;;;;;;;;;;;21.60;31.90;;;;;;463250;256;2032;-44
2023/01/21 02:30:16;;;;;;;;;;;21.60;31.90;;;;;;463197;256;1787;-44
2023/01/21 02:32:17;;;;;;;;;;;21.50;31.90;;;;;;463127;256;2555;-43
2023/01/21 02:34:18;;;;;;;;;;;21.50;32.00;;;;;;463343;256;1707;-44
2023/01/21 02:36:19;;;;;;;;;;;21.50;32.00;;;;;;463204;256;1728;-44
2023/01/21 02:38:21;;;;;;;;;;;21.60;31.90;;;;;;463048;256;1964;-44
2023/01/21 02:40:22;;;;;;;;;;;21.80;31.60;;;;;;463423;256;1565;-44
2023/01/21 02:42:23;;;;;;;;;;;22.00;31.30;;;;;;463458;256;2180;-44
2023/01/21 02:44:25;;;;;;;;;;;22.10;31.10;;;;;;463145;256;1734;-44
2023/01/21 02:46:26;;;;;;;;;;;22.20;30.90;;;;;;463275;256;1718;-43
2023/01/21 02:48:27;;;;;;;;;;;22.40;30.70;;;;;;463323;256;2205;-44
2023/01/21 02:50:29;;;;;;;;;;;22.40;30.50;;;;;;463336;256;1731;-44
2023/01/21 02:52:30;;;;;;;;;;;22.50;30.40;;;;;;463418;256;1714;-43
2023/01/21 02:54:31;;;;;;;;;;;22.40;30.50;;;;;;463294;256;1958;-44
2023/01/21 02:56:33;;;;;;;;;;;22.40;30.60;;;;;;463677;256;1774;-43
2023/01/21 02:58:34;;;;;;;;;;;22.30;30.70;;;;;;463738;256;1811;-44
2023/01/21 03:00:35;;;;;;;;;;;22.10;30.90;;;;;;463271;256;2343;-44
2023/01/21 03:02:37;;;;;;;;;;;22.00;31.10;;;;;;463231;256;2171;-44
2023/01/21 03:04:38;;;;;;;;;;;21.90;31.20;;;;;;463480;256;1744;-44
2023/01/21 03:06:39;;;;;;;;;;;21.80;31.30;;;;;;463302;256;1719;-44
2023/01/21 03:08:41;;;;;;;;;;;21.80;31.50;;;;;;463365;256;1856;-43
2023/01/21 03:10:42;;;;;;;;;;;21.70;31.60;;;;;;463246;256;1962;-44
2023/01/21 03:12:43;;;;;;;;;;;21.70;31.70;;;;;;463260;256;1951;-43
2023/01/21 03:17:04;;;;;;;;;;;21.60;31.80;;;;;;463251;257;1942;-44
2023/01/21 03:19:05;;;;;;;;;;;21.50;31.80;;;;;;463282;256;1730;-43
2023/01/21 03:21:06;;;;;;;;;;;21.50;31.90;;;;;;463243;256;1732;-44
2023/01/21 03:23:08;;;;;;;;;;;21.50;31.90;;;;;;463182;256;2195;-44
2023/01/21 03:25:09;;;;;;;;;;;21.50;31.90;;;;;;463124;256;1712;-43
2023/01/21 03:27:10;;;;;;;;;;;21.40;31.90;;;;;;463293;256;1711;-43
2023/01/21 03:29:12;;;;;;;;;;;21.40;31.90;;;;;;463011;256;2162;-43
2023/01/21 03:31:13;;;;;;;;;;;21.40;32.00;;;;;;463082;256;1659;-43
2023/01/21 03:33:14;;;;;;;;;;;21.40;32.10;;;;;;463086;256;1578;-43
2023/01/21 03:35:16;;;;;;;;;;;21.30;32.00;;;;;;463099;256;2170;-44
2023/01/21 03:37:17;;;;;;;;;;;21.40;32.10;;;;;;462940;256;1710;-43
2023/01/21 03:39:18;;;;;;;;;;;21.40;32.10;;;;;;463064;256;1709;-43
2023/01/21 03:41:20;;;;;;;;;;;21.30;32.10;;;;;;463329;256;1936;-44
2023/01/21 03:43:21;;;;;;;;;;;21.30;32.10;;;;;;463083;256;2160;-43
2023/01/21 03:45:22;;;;;;;;;;;21.30;32.10;;;;;;462971;256;1703;-44
2023/01/21 03:47:24;;;;;;;;;;;21.30;32.10;;;;;;463456;256;1702;-44
2023/01/21 03:49:25;;;;;;;;;;;21.30;32.10;;;;;;463183;256;2132;-43
2023/01/21 03:51:26;;;;;;;;;;;21.30;32.10;;;;;;463294;256;1942;-44
2023/01/21 03:53:28;;;;;;;;;;;21.20;32.10;;;;;;463660;256;1947;-43
2023/01/21 03:55:29;;;;;;;;;;;21.20;32.20;;;;;;463221;256;1686;-44
2023/01/21 03:57:30;;;;;;;;;;;21.20;32.10;;;;;;463257;256;1725;-43
2023/01/21 03:59:32;;;;;;;;;;;21.20;32.20;;;;;;463271;256;1876;-43
2023/01/21 04:01:33;;;;;;;;;;;21.20;32.20;;;;;;463114;256;1751;-43
2023/01/21 04:03:34;;;;;;;;;;;21.20;32.20;;;;;;463171;256;2222;-43
2023/01/21 04:05:36;;;;;;;;;;;21.20;32.20;;;;;;463386;256;2466;-43
2023/01/21 04:07:37;;;;;;;;;;;21.10;32.20;;;;;;463187;256;1737;-43
2023/01/21 04:09:38;;;;;;;;;;;21.10;32.30;;;;;;463316;256;1736;-43
2023/01/21 04:11:40;;;;;;;;;;;21.10;32.30;;;;;;463369;256;2706;-44
2023/01/21 04:13:41;;;;;;;;;;;21.10;32.30;;;;;;463228;256;1662;-44
2023/01/21 04:15:42;;;;;;;;;;;21.10;32.30;;;;;;463256;256;2297;-43
2023/01/21 04:17:44;;;;;;;;;;;21.10;32.30;;;;;;463459;256;1879;-43
2023/01/21 04:19:45;;;;;;;;;;;21.10;32.30;;;;;;463386;256;2071;-43
2023/01/21 04:21:46;;;;;;;;;;;21.10;32.30;;;;;;463532;256;1564;-43
2023/01/21 04:23:48;;;;;;;;;;;21.10;32.40;;;;;;463432;256;2202;-44
2023/01/21 04:25:49;;;;;;;;;;;21.20;32.10;;;;;;463247;256;1723;-44
2023/01/21 04:27:50;;;;;;;;;;;21.40;31.90;;;;;;463314;256;1848;-44
2023/01/21 04:29:52;;;;;;;;;;;21.60;31.60;;;;;;463307;256;1700;-44
2023/01/21 04:31:53;;;;;;;;;;;21.80;31.30;;;;;;463302;256;1793;-44
2023/01/21 04:33:54;;;;;;;;;;;21.90;31.00;;;;;;463426;256;1744;-44
2023/01/21 04:35:56;;;;;;;;;;;22.00;31.00;;;;;;463464;256;1593;-44
2023/01/21 04:37:57;;;;;;;;;;;22.10;30.80;;;;;;463142;256;1815;-43
2023/01/21 04:39:58;;;;;;;;;;;22.20;30.70;;;;;;463359;256;1721;-44
2023/01/21 04:41:59;;;;;;;;;;;22.20;30.60;;;;;;463354;256;1856;-44
2023/01/21 04:44:01;;;;;;;;;;;22.30;30.40;;;;;;463253;256;2192;-44
2023/01/21 04:46:02;;;;;;;;;;;22.40;30.40;;;;;;463430;256;1636;-44
2023/01/21 04:48:03;;;;;;;;;;;22.40;30.30;;;;;;463341;256;1254;-44
2023/01/21 04:50:05;;;;;;;;;;;22.50;30.30;;;;;;463529;256;1761;-43
2023/01/21 04:52:06;;;;;;;;;;;22.50;30.20;;;;;;463690;256;1237;-44
2023/01/21 04:54:07;;;;;;;;;;;22.50;30.20;;;;;;463667;256;1662;-44
2023/01/21 04:56:09;;;;;;;;;;;22.60;30.10;;;;;;463945;256;1143;-44
2023/01/21 04:58:10;;;;;;;;;;;22.60;30.10;;;;;;463479;256;1312;-44
2023/01/21 05:00:11;;;;;;;;;;;22.60;30.00;;;;;;463900;256;1113;-44
2023/01/21 05:02:13;;;;;;;;;;;22.70;30.00;;;;;;463379;256;1094;-44
2023/01/21 05:04:14;;;;;;;;;;;22.70;30.00;;;;;;463559;256;2207;-43
2023/01/21 05:06:16;;;;;;;;;;;22.70;30.00;;;;;;463498;256;1082;-44
2023/01/21 05:08:17;;;;;;;;;;;22.70;30.00;;;;;;463546;256;1265;-44
2023/01/21 05:10:18;;;;;;;;;;;22.80;30.00;;;;;;463736;256;1129;-44
2023/01/21 05:12:20;;;;;;;;;;;22.80;30.00;;;;;;463638;256;1130;-44
2023/01/21 05:14:21;;;;;;;;;;;22.80;29.90;;;;;;463398;256;1093;-44
2023/01/21 05:16:22;;;;;;;;;;;22.90;29.90;;;;;;463926;256;1190;-44
2023/01/21 05:18:24;;;;;;;;;;;22.90;29.90;;;;;;463571;256;1703;-44
2023/01/21 05:20:25;;;;;;;;;;;22.90;29.90;;;;;;463432;256;1531;-44
2023/01/21 05:22:26;;;;;;;;;;;22.90;29.80;;;;;;463280;256;2199;-44
2023/01/21 05:24:27;;;;;;;;;;;23.00;29.80;;;;;;463381;256;1971;-44
2023/01/21 05:26:29;;;;;;;;;;;23.00;29.90;;;;;;463207;256;1853;-44
2023/01/21 05:28:30;;;;;;;;;;;23.00;29.80;;;;;;463324;256;1442;-43
2023/01/21 05:30:31;;;;;;;;;;;23.00;29.80;;;;;;463538;256;1759;-44
2023/01/21 05:32:34;;;;;;;;;;;23.00;29.80;;;;;;463324;256;1959;-44
2023/01/21 05:34:34;;;;;;;;;;;23.00;29.80;;;;;;463295;257;2249;-43
2023/01/21 05:36:35;;;;;;;;;;;23.00;29.70;;;;;;463410;256;2053;-44
2023/01/21 05:38:37;;;;;;;;;;;23.10;29.80;;;;;;463226;256;1990;-44
2023/01/21 05:40:38;;;;;;;;;;;23.10;29.70;;;;;;463803;256;1414;-44
2023/01/21 05:42:39;;;;;;;;;;;23.10;29.70;;;;;;463473;256;2175;-44
2023/01/21 05:44:41;;;;;;;;;;;23.10;29.70;;;;;;463281;256;1662;-44
2023/01/21 05:46:42;;;;;;;;;;;23.20;29.70;;;;;;463406;256;1252;-44
2023/01/21 05:48:44;;;;;;;;;;;23.10;29.70;;;;;;463410;256;2164;-44
2023/01/21 05:50:45;;;;;;;;;;;23.20;29.70;;;;;;463434;256;1546;-44
2023/01/21 05:52:46;;;;;;;;;;;23.20;29.70;;;;;;463463;256;2031;-44
2023/01/21 05:54:48;;;;;;;;;;;23.20;29.60;;;;;;463457;256;1686;-44
2023/01/21 05:56:49;;;;;;;;;;;23.20;29.70;;;;;;463707;256;1731;-44
2023/01/21 05:58:50;;;;;;;;;;;23.20;29.70;;;;;;463404;256;1638;-44
2023/01/21 06:00:52;;;;;;;;;;;23.20;29.60;;;;;;463680;256;1196;-44
2023/01/21 06:02:53;;;;;;;;;;;23.30;29.70;;;;;;463431;256;2168;-44
2023/01/21 06:04:54;;;;;;;;;;;23.30;29.70;;;;;;463873;256;1600;-44
2023/01/21 06:06:56;;;;;;;;;;;23.30;29.60;;;;;;463588;256;1673;-44
2023/01/21 06:08:57;;;;;;;;;;;23.30;29.60;;;;;;463376;256;1727;-44
2023/01/21 06:10:58;;;;;;;;;;;23.30;29.60;;;;;;463784;256;1693;-44
2023/01/21 06:13:00;;;;;;;;;;;23.30;29.60;;;;;;463394;256;1238;-43
2023/01/21 06:15:01;;;;;;;;;;;23.30;29.60;;;;;;463159;256;2034;-44
2023/01/21 06:17:02;;;;;;;;;;;23.40;29.60;;;;;;463271;256;1726;-44
2023/01/21 06:19:04;;;;;;;;;;;23.30;29.60;;;;;;463208;256;2243;-44
2023/01/21 06:21:05;;;;;;;;;;;23.40;29.60;;;;;;463122;256;1746;-44
2023/01/21 06:23:06;;;;;;;;;;;23.40;29.60;;;;;;463305;256;2215;-44
2023/01/21 06:25:08;;;;;;;;;;;23.40;29.60;;;;;;463057;256;1685;-44
2023/01/21 06:27:09;;;;;;;;;;;23.40;29.60;;;;;;463110;256;2131;-44
2023/01/21 06:29:10;;;;;;;;;;;23.40;29.50;;;;;;463149;256;1731;-44
2023/01/21 06:31:12;;;;;;;;;;;23.40;29.50;;;;;;463135;256;2174;-44
2023/01/21 06:33:13;;;;;;;;;;;23.40;29.50;;;;;;463095;256;1596;-44
2023/01/21 06:35:14;;;;;;;;;;;23.40;29.50;;;;;;463126;256;2275;-44
2023/01/21 06:37:16;;;;;;;;;;;23.40;29.50;;;;;;463296;256;1739;-43
2023/01/21 06:39:17;;;;;;;;;;;23.40;29.50;;;;;;463168;256;1605;-44
2023/01/21 06:41:18;;;;;;;;;;;23.50;29.50;;;;;;463251;256;1904;-44
2023/01/21 06:43:20;;;;;;;;;;;23.40;29.50;;;;;;463386;256;2183;-43
2023/01/21 06:45:21;;;;;;;;;;;23.40;29.50;;;;;;463110;256;1717;-43
2023/01/21 06:47:23;;;;;;;;;;;23.40;29.50;;;;;;463147;256;1702;-43
2023/01/21 06:49:24;;;;;;;;;;;23.50;29.50;;;;;;463166;256;1261;-44
2023/01/21 06:51:25;;;;;;;;;;;23.50;29.50;;;;;;463322;256;1699;-44
2023/01/21 06:53:26;;;;;;;;;;;23.50;29.50;;;;;;463174;256;1682;-44
2023/01/21 06:55:28;;;;;;;;;;;23.50;29.50;;;;;;463228;256;1773;-44
2023/01/21 06:57:29;;;;;;;;;;;23.50;29.50;;;;;;463512;256;1736;-44
2023/01/21 06:59:31;;;;;;;;;;;23.50;29.50;;;;;;463267;256;2678;-44
2023/01/21 07:01:32;;;;;;;;;;;23.50;29.50;;;;;;463188;256;1724;-44
2023/01/21 07:03:33;;;;;;;;;;;23.50;29.50;;;;;;463231;256;2211;-44
2023/01/21 07:05:35;;;;;;;;;;;23.50;29.50;;;;;;463562;256;2235;-44
2023/01/21 07:07:36;;;;;;;;;;;23.50;29.50;;;;;;463441;256;2149;-44
2023/01/21 07:09:37;;;;;;;;;;;23.60;29.50;;;;;;463428;256;1954;-43
2023/01/21 07:11:39;;;;;;;;;;;23.60;29.50;;;;;;463876;256;1565;-44
2023/01/21 07:13:40;;;;;;;;;;;23.60;29.40;;;;;;463680;256;1709;-44
2023/01/21 07:15:41;;;;;;;;;;;23.60;29.40;;;;;;463351;256;1626;-44
2023/01/21 07:17:43;;;;;;;;;;;23.60;29.50;;;;;;463401;256;2469;-44
2023/01/21 07:19:44;;;;;;;;;;;23.60;29.50;;;;;;463469;256;1743;-44
2023/01/21 07:21:45;;;;;;;;;;;23.60;29.50;;;;;;463264;256;1716;-44
2023/01/21 07:23:47;;;;;;;;;;;23.70;29.40;;;;;;463273;256;2168;-44
2023/01/21 07:25:48;;;;;;;;;;;23.60;29.40;;;;;;463577;256;1703;-44
2023/01/21 07:27:49;;;;;;;;;;;23.60;29.40;;;;;;463235;256;2472;-44
2023/01/21 07:29:51;;;;;;;;;;;23.70;29.40;;;;;;463211;256;1881;-43
2023/01/21 07:31:52;;;;;;;;;;;23.70;29.50;;;;;;463088;256;2122;-44
2023/01/21 07:33:53;;;;;;;;;;;23.70;29.40;;;;;;463087;256;2075;-43
2023/01/21 07:35:55;;;;;;;;;;;23.70;29.40;;;;;;463218;256;1733;-44
2023/01/21 07:37:56;;;;;;;;;;;23.70;29.40;;;;;;463233;256;1885;-44
2023/01/21 07:39:57;;;;;;;;;;;23.70;29.40;;;;;;463234;256;1671;-44
2023/01/21 07:41:59;;;;;;;;;;;23.70;29.40;;;;;;463287;256;1693;-44
2023/01/21 07:44:00;;;;;;;;;;;23.70;29.40;;;;;;463191;256;2215;-43
2023/01/21 07:46:01;;;;;;;;;;;23.70;29.40;;;;;;463211;256;2315;-43
2023/01/21 07:48:03;;;;;;;;;;;23.60;29.50;;;;;;463296;256;2413;-44
2023/01/21 07:50:07;;;;;;;;;;;23.50;29.60;;;;;;463326;256;1910;-43
2023/01/21 07:52:05;;;;;;;;;;;23.30;29.80;;;;;;463207;257;1776;-44
2023/01/21 07:54:07;;;;;;;;;;;23.10;30.00;;;;;;463597;256;2574;-44
2023/01/21 07:56:08;;;;;;;;;;;22.90;30.20;;;;;;463699;256;2379;-44
2023/01/21 07:58:09;;;;;;;;;;;22.70;30.40;;;;;;463363;256;1845;-43
2023/01/21 08:00:11;;;;;;;;;;;22.70;30.60;;;;;;463844;256;1255;-43
2023/01/21 08:02:12;;;;;;;;;;;22.60;30.70;;;;;;463651;256;1207;-43
2023/01/21 08:04:13;;;;;;;;;;;22.50;30.90;;;;;;463835;256;2202;-43
2023/01/21 08:06:15;;;;;;;;;;;22.40;31.00;;;;;;463888;256;1815;-44
2023/01/21 08:08:16;;;;;;;;;;;22.30;31.10;;;;;;463865;256;1229;-44
2023/01/21 08:10:17;;;;;;;;;;;22.30;31.20;;;;;;463459;256;1246;-44
2023/01/21 08:12:19;;;;;;;;;;;22.20;31.20;;;;;;463866;256;1758;-43
2023/01/21 08:14:20;;;;;;;;;;;22.10;31.20;;;;;;463348;256;1321;-43
2023/01/21 08:16:21;;;;;;;;;;;22.10;31.30;;;;;;463543;256;1858;-43
2023/01/21 08:18:23;;;;;;;;;;;22.10;31.40;;;;;;463424;256;1718;-44
2023/01/21 08:20:24;;;;;;;;;;;22.00;31.50;;;;;;463434;256;1707;-43
2023/01/21 08:22:25;;;;;;;;;;;22.00;31.50;;;;;;463323;256;1948;-43
2023/01/21 08:24:27;;;;;;;;;;;22.00;31.50;;;;;;463478;256;2195;-43
2023/01/21 08:26:28;;;;;;;;;;;22.00;31.60;;;;;;463298;256;1725;-44
2023/01/21 08:28:29;;;;;;;;;;;21.90;31.50;;;;;;463424;256;1692;-44
2023/01/21 08:30:31;;;;;;;;;;;21.90;31.60;;;;;;463275;256;1884;-43
2023/01/21 08:32:32;;;;;;;;;;;21.90;31.70;;;;;;463334;256;1991;-43
2023/01/21 08:34:33;;;;;;;;;;;21.80;31.70;;;;;;463436;256;1699;-43
2023/01/21 08:36:37;;;;;;;;;;;21.80;31.80;;;;;;463375;256;1318;-43
2023/01/21 08:38:36;;;;;;;;;;;21.80;31.80;;;;;;463229;257;2336;-43
2023/01/21 08:40:38;;;;;;;;;;;21.80;31.80;;;;;;463389;256;1586;-43
2023/01/21 08:42:39;;;;;;;;;;;21.70;31.80;;;;;;463460;256;1542;-43
2023/01/21 08:44:40;;;;;;;;;;;21.70;31.90;;;;;;463357;256;2163;-43
2023/01/21 08:46:42;;;;;;;;;;;21.60;31.90;;;;;;463420;256;1687;-43
2023/01/21 08:48:43;;;;;;;;;;;21.60;32.00;;;;;;463311;256;1948;-43
2023/01/21 08:50:44;;;;;;;;;;;21.60;32.00;;;;;;463220;256;2043;-43
2023/01/21 08:52:46;;;;;;;;;;;21.60;32.00;;;;;;463190;256;1726;-43
2023/01/21 08:54:47;;;;;;;;;;;21.60;32.00;;;;;;463158;256;1740;-44
2023/01/21 08:56:48;;;;;;;;;;;21.50;32.00;;;;;;463220;256;1754;-43
2023/01/21 08:58:50;;;;;;;;;;;21.50;32.10;;;;;;463320;256;1581;-43
2023/01/21 09:00:51;;;;;;;;;;;21.50;32.10;;;;;;463127;256;1791;-43
2023/01/21 09:02:52;;;;;;;;;;;21.50;32.10;;;;;;463142;256;1727;-44
2023/01/21 09:04:54;;;;;;;;;;;21.50;32.10;;;;;;463081;256;2207;-43
2023/01/21 09:06:55;;;;;;;;;;;21.50;32.10;;;;;;463105;257;1320;-43
2023/01/21 09:08:57;;;;;;;;;;;21.40;32.10;;;;;;463183;256;1466;-44
2023/01/21 09:11:01;;;;;;;;;;;21.50;32.10;;;;;;463334;256;1966;-44
2023/01/21 09:13:02;;;;;;;;;;;21.40;32.20;;;;;;463279;256;1654;-43
2023/01/21 09:15:03;;;;;;;;;;;21.40;32.20;;;;;;463340;256;2115;-43
2023/01/21 09:17:05;;;;;;;;;;;21.40;32.20;;;;;;463340;256;1700;-44
2023/01/21 09:19:06;;;;;;;;;;;21.40;32.20;;;;;;463387;256;1725;-43
2023/01/21 09:21:07;;;;;;;;;;;21.40;32.20;;;;;;463412;256;1742;-43
2023/01/21 09:23:23;;;;;;;;;;;21.40;32.20;;;;;;463370;256;1768;-43
2023/01/21 09:25:24;;;;;;;;;;;21.40;32.30;;;;;;463454;256;2163;-43
2023/01/21 09:27:26;;;;;;;;;;;21.40;32.30;;;;;;463283;256;1668;-43
2023/01/21 09:29:27;;;;;;;;;;;21.30;32.20;;;;;;463155;257;2452;-43
2023/01/21 09:31:28;;;;;;;;;;;21.30;32.30;;;;;;463132;256;1720;-44
2023/01/21 09:33:30;;;;;;;;;;;21.30;32.30;;;;;;463108;256;1708;-43
2023/01/21 09:35:31;;;;;;;;;;;21.30;32.30;;;;;;463148;256;1829;-43
2023/01/21 09:37:33;;;;;;;;;;;21.30;32.30;;;;;;463131;256;1808;-43
2023/01/21 09:39:34;;;;;;;;;;;21.30;32.40;;;;;;463165;256;1951;-43
2023/01/21 09:41:35;;;;;;;;;;;21.30;32.40;;;;;;461880;256;1771;-43
2023/01/21 09:43:37;;;;;;;;;;;21.20;32.30;;;;;;462663;256;2240;-44
2023/01/21 09:45:38;;;;;;;;;;;21.20;32.30;;;;;;463013;256;2175;-44
2023/01/21 09:47:39;;;;;;;;;;;21.20;32.30;;;;;;463627;256;2123;-43
2023/01/21 09:49:41;;;;;;;;;;;21.20;32.40;;;;;;463266;256;1743;-43
2023/01/21 09:51:42;;;;;;;;;;;21.20;32.40;;;;;;463386;256;2127;-43
2023/01/21 09:53:43;;;;;;;;;;;21.20;32.40;;;;;;463592;256;1713;-43
2023/01/21 09:55:46;;;;;;;;;;;21.20;32.40;;;;;;463432;256;1959;-43
2023/01/21 09:57:46;;;;;;;;;;;21.10;32.40;;;;;;463346;256;2330;-43
2023/01/21 09:59:47;;;;;;;;;;;21.10;32.40;;;;;;463357;256;1723;-43
2023/01/21 10:01:49;;;;;;;;;;;21.10;32.40;;;;;;463373;256;1350;-43
2023/01/21 10:03:50;;;;;;;;;;;21.10;32.30;;;;;;463815;256;1733;-43
2023/01/21 10:05:51;;;;;;;;;;;21.10;32.40;;;;;;463477;256;2206;-43
2023/01/21 10:07:53;;;;;;;;;;;21.10;32.40;;;;;;463441;256;1685;-43
2023/01/21 10:09:54;;;;;;;;;;;21.10;32.40;;;;;;463528;256;2006;-43
2023/01/21 10:11:55;;;;;;;;;;;21.10;32.40;;;;;;463439;256;1855;-43
2023/01/21 10:13:57;;;;;;;;;;;21.10;32.50;;;;;;463158;256;1686;-43
2023/01/21 10:15:58;;;;;;;;;;;21.10;32.50;;;;;;463402;256;1811;-43
2023/01/21 10:17:59;;;;;;;;;;;21.10;32.50;;;;;;463502;256;1989;-44
2023/01/21 10:20:01;;;;;;;;;;;21.00;32.50;;;;;;463283;256;1685;-43
2023/01/21 10:22:02;;;;;;;;;;;21.00;32.50;;;;;;463255;256;2412;-43
2023/01/21 10:24:03;;;;;;;;;;;21.00;32.50;;;;;;463238;256;1835;-43
2023/01/21 10:26:05;;;;;;;;;;;21.00;32.50;;;;;;463145;256;2256;-43
2023/01/21 10:28:06;;;;;;;;;;;21.00;32.50;;;;;;463355;256;1714;-43
2023/01/21 10:30:07;;;;;;;;;;;21.00;32.50;;;;;;463220;256;1747;-43
2023/01/21 10:32:08;;;;;;;;;;;21.00;32.50;;;;;;463695;256;2232;-44
2023/01/21 10:34:10;;;;;;;;;;;21.00;32.50;;;;;;463232;256;1776;-43
2023/01/21 10:36:11;;;;;;;;;;;21.00;32.50;;;;;;463266;256;1702;-43
2023/01/21 10:38:13;;;;;;;;;;;21.00;32.50;;;;;;463152;256;1523;-43
2023/01/21 10:40:16;;;;;;;;;;;21.00;32.50;;;;;;463467;256;1762;-43
2023/01/21 10:42:15;;;;;;;;;;;21.00;32.50;;;;;;463195;257;2225;-43
2023/01/21 10:44:16;;;;;;;;;;;21.00;32.50;;;;;;463282;256;2203;-43
2023/01/21 10:46:18;;;;;;;;;;;21.00;32.50;;;;;;463196;256;2056;-43
2023/01/21 10:48:19;;;;;;;;;;;21.00;32.50;;;;;;463188;256;1681;-43
2023/01/21 10:50:20;;;;;;;;;;;20.90;32.50;;;;;;463116;256;2163;-43
2023/01/21 10:52:22;;;;;;;;;;;20.90;32.50;;;;;;463236;256;1777;-44
2023/01/21 10:54:23;;;;;;;;;;;20.90;32.50;;;;;;463274;256;1583;-43
2023/01/21 10:56:25;;;;;;;;;;;20.90;32.60;;;;;;463263;256;1974;-43
2023/01/21 10:58:26;;;;;;;;;;;20.90;32.60;;;;;;463648;256;1705;-43
2023/01/21 11:00:28;;;;;;;;;;;20.90;32.60;;;;;;463317;256;1691;-43
2023/01/21 11:02:29;;;;;;;;;;;20.90;32.60;;;;;;463342;256;1695;-44
2023/01/21 11:04:30;;;;;;;;;;;20.90;32.60;;;;;;463400;256;2207;-44
2023/01/21 11:06:31;;;;;;;;;;;20.90;32.60;;;;;;463229;256;1898;-43
2023/01/21 11:08:33;;;;;;;;;;;20.90;32.70;;;;;;463667;256;1819;-43
2023/01/21 11:10:34;;;;;;;;;;;20.90;32.70;;;;;;463400;256;2137;-43
2023/01/21 11:12:35;;;;;;;;;;;20.90;32.60;;;;;;463419;256;1705;-43
2023/01/21 11:14:37;;;;;;;;;;;20.90;32.60;;;;;;463359;256;1694;-44
2023/01/21 11:16:38;;;;;;;;;;;20.90;32.60;;;;;;463305;256;1741;-43
2023/01/21 11:18:39;;;;;;;;;;;20.80;32.60;;;;;;463326;256;2135;-43
2023/01/21 11:20:41;;;;;;;;;;;20.80;32.60;;;;;;463278;256;1667;-44
2023/01/21 11:22:44;;;;;;;;;;;20.80;32.60;;;;;;463388;256;1683;-43
2023/01/21 11:24:43;;;;;;;;;;;20.80;32.60;;;;;;463432;256;2670;-43
2023/01/21 11:26:45;;;;;;;;;;;20.80;32.60;;;;;;463287;256;1996;-43
2023/01/21 11:28:46;;;;;;;;;;;20.80;32.60;;;;;;463181;256;1888;-43
2023/01/21 11:30:47;;;;;;;;;;;20.80;32.60;;;;;;463142;256;2587;-43
2023/01/21 11:32:49;;;;;;;;;;;20.80;32.70;;;;;;463432;256;2187;-43
2023/01/21 11:34:50;;;;;;;;;;;20.80;32.60;;;;;;463183;256;1718;-43
2023/01/21 11:36:51;;;;;;;;;;;20.80;32.60;;;;;;463118;256;1838;-43
2023/01/21 11:38:53;;;;;;;;;;;20.80;32.70;;;;;;463145;256;1871;-43
2023/01/21 11:40:54;;;;;;;;;;;20.80;32.70;;;;;;463236;256;1602;-43
2023/01/21 11:42:55;;;;;;;;;;;20.80;32.70;;;;;;463178;256;1904;-43
2023/01/21 11:44:57;;;;;;;;;;;20.80;32.60;;;;;;463078;256;2172;-43
2023/01/21 11:46:58;;;;;;;;;;;20.70;32.70;;;;;;463173;256;2619;-43
2023/01/21 11:48:59;;;;;;;;;;;20.80;32.70;;;;;;463162;256;2410;-43
2023/01/21 11:51:00;;;;;;;;;;;20.80;32.70;;;;;;463155;256;1683;-43
2023/01/21 11:53:02;;;;;;;;;;;20.70;32.70;;;;;;463226;256;2416;-43
2023/01/21 11:55:03;;;;;;;;;;;20.70;32.70;;;;;;463204;256;2112;-43
2023/01/21 11:57:05;;;;;;;;;;;20.70;32.80;;;;;;463290;256;1972;-43
2023/01/21 11:59:06;;;;;;;;;;;20.80;32.60;;;;;;463197;256;2026;-43
2023/01/21 12:01:07;;;;;;;;;;;21.00;32.30;;;;;;463128;256;1526;-44